Time;durP1;ratioP1;P1;durP2;ratioP2;P2;SDS_P1;SDS_P2;PMS_P1;PMS_P2;Temp;Humidity;BMP_temperature;BMP_pressure;BME280_temperature;BME280_humidity;BME280_pressure;Samples;Min_cycle;Max_cycle;Signal;HPM_P1;HPM_P2
2021/01/26 00:01:40;;;;;;;12.57;11.47;;;3.90;99.90;;;;;;10307132;28;20611;-78
2021/01/26 00:06:41;;;;;;;12.70;11.43;;;3.90;99.90;;;;;;10322462;28;20254;-78
2021/01/26 00:11:43;;;;;;;13.03;11.80;;;3.80;99.90;;;;;;10324924;28;20354;-78
2021/01/26 00:16:45;;;;;;;12.03;10.90;;;3.80;99.90;;;;;;10321716;28;20203;-78
2021/01/26 00:21:47;;;;;;;11.80;10.70;;;3.80;99.90;;;;;;10323048;28;20719;-78
2021/01/26 00:26:48;;;;;;;9.93;9.13;;;3.90;99.90;;;;;;10324463;28;20286;-78
2021/01/26 00:31:51;;;;;;;10.00;9.10;;;3.80;99.90;;;;;;10295955;28;20837;-77
2021/01/26 00:36:54;;;;;;;10.47;9.57;;;3.80;99.90;;;;;;10294165;28;20199;-77
2021/01/26 00:41:55;;;;;;;9.80;8.90;;;3.70;99.90;;;;;;10293294;28;20215;-77
2021/01/26 00:46:58;;;;;;;10.20;9.30;;;3.70;99.90;;;;;;10316640;28;20246;-78
2021/01/26 00:51:59;;;;;;;9.50;8.70;;;3.70;99.90;;;;;;10324712;28;20247;-78
2021/01/26 00:57:04;;;;;;;10.10;9.20;;;3.70;99.90;;;;;;10307052;28;20269;-77
2021/01/26 01:02:07;;;;;;;10.47;9.57;;;3.70;99.90;;;;;;10309947;28;20222;-77
2021/01/26 01:07:08;;;;;;;9.30;8.60;;;3.60;99.90;;;;;;10309746;28;20188;-77
2021/01/26 01:12:10;;;;;;;10.00;9.20;;;3.60;99.90;;;;;;10308379;28;20235;-77
2021/01/26 01:17:13;;;;;;;9.03;8.30;;;3.50;99.90;;;;;;10306498;28;20222;-77
2021/01/26 01:22:15;;;;;;;8.17;7.57;;;3.50;99.90;;;;;;10304076;28;20353;-77
2021/01/26 01:27:16;;;;;;;8.90;8.10;;;3.50;99.90;;;;;;10308288;28;20640;-77
2021/01/26 01:32:19;;;;;;;8.90;8.00;;;3.50;99.90;;;;;;10310010;28;20242;-77
2021/01/26 01:37:20;;;;;;;7.73;7.03;;;3.50;99.90;;;;;;10309569;28;20227;-78
2021/01/26 01:42:22;;;;;;;8.10;7.40;;;3.50;99.90;;;;;;10308158;28;20254;-78
2021/01/26 01:47:28;;;;;;;7.27;6.67;;;3.50;99.90;;;;;;10309466;28;20727;-77
2021/01/26 01:52:34;;;;;;;8.57;7.87;;;3.40;99.90;;;;;;10309923;28;20219;-77
2021/01/26 01:57:39;;;;;;;9.30;8.50;;;3.30;99.90;;;;;;10310755;28;20211;-77
2021/01/26 02:02:46;;;;;;;7.17;6.57;;;3.30;99.90;;;;;;10339017;28;20229;-77
2021/01/26 02:07:48;;;;;;;7.63;6.93;;;3.30;99.90;;;;;;10306135;28;20564;-78
2021/01/26 02:12:51;;;;;;;9.97;8.47;;;3.30;99.90;;;;;;10307571;28;20215;-78
2021/01/26 02:18:06;;;;;;;8.63;7.63;;;3.30;99.90;;;;;;10322318;28;20702;-77
2021/01/26 02:23:58;;;;;;;9.23;8.33;;;3.30;99.90;;;;;;10312218;28;20223;-77
2021/01/26 02:29:03;;;;;;;9.40;8.50;;;3.30;99.90;;;;;;10235976;29;20217;-77
2021/01/26 02:34:53;;;;;;;8.60;7.73;;;3.30;99.90;;;;;;10270023;28;20289;-77
2021/01/26 02:40:01;;;;;;;8.10;7.40;;;3.30;99.90;;;;;;10288046;28;20295;-77
2021/01/26 02:45:18;;;;;;;9.10;8.20;;;3.30;99.90;;;;;;10291003;28;20274;-78
2021/01/26 02:50:26;;;;;;;7.70;6.97;;;3.30;99.90;;;;;;10296703;28;20212;-78
2021/01/26 02:55:33;;;;;;;7.70;6.90;;;3.30;99.90;;;;;;10294948;28;20429;-78
2021/01/26 03:00:37;;;;;;;8.33;7.50;;;3.20;99.70;;;;;;10294669;28;20323;-78
2021/01/26 03:05:48;;;;;;;8.60;7.80;;;3.10;99.90;;;;;;10294313;28;20196;-77
2021/01/26 03:10:59;;;;;;;9.17;8.27;;;3.10;99.90;;;;;;10295490;28;20220;-77
2021/01/26 03:16:04;;;;;;;8.90;8.00;;;3.10;99.90;;;;;;10293890;28;20684;-77
2021/01/26 03:21:07;;;;;;;8.27;7.47;;;3.10;99.90;;;;;;10294058;28;20643;-78
2021/01/26 03:26:14;;;;;;;8.40;7.60;;;3.00;99.80;;;;;;10294946;28;20735;-78
2021/01/26 03:31:18;;;;;;;9.23;8.33;;;3.00;99.90;;;;;;10293934;28;20238;-78
2021/01/26 03:36:21;;;;;;;9.00;8.10;;;2.90;99.90;;;;;;10295126;28;20203;-78
2021/01/26 03:41:24;;;;;;;9.73;8.13;;;2.90;99.90;;;;;;10293104;28;20226;-77
2021/01/26 03:46:41;;;;;;;9.23;8.33;;;2.90;99.90;;;;;;10333212;28;20199;-77
2021/01/26 03:52:13;;;;;;;11.97;9.40;;;2.90;99.90;;;;;;10318888;28;20756;-78
2021/01/26 03:57:40;;;;;;;10.10;9.10;;;2.90;99.90;;;;;;10292797;28;20223;-78
2021/01/26 04:02:55;;;;;;;9.77;8.00;;;3.00;99.90;;;;;;10293745;28;20706;-77
2021/01/26 04:08:01;;;;;;;10.53;9.53;;;3.00;99.90;;;;;;10291643;28;20239;-77
2021/01/26 04:13:09;;;;;;;9.60;8.70;;;3.00;99.90;;;;;;10293053;28;20725;-77
2021/01/26 04:18:12;;;;;;;8.93;8.00;;;3.10;99.90;;;;;;10292023;28;20224;-78
2021/01/26 04:23:14;;;;;;;8.13;7.30;;;3.00;99.90;;;;;;10291874;28;20223;-77
2021/01/26 04:28:24;;;;;;;8.67;7.77;;;2.80;99.50;;;;;;10292878;28;20603;-78
2021/01/26 04:33:25;;;;;;;8.93;8.13;;;2.70;99.90;;;;;;10292479;28;20215;-78
2021/01/26 04:38:27;;;;;;;9.30;8.50;;;2.70;99.70;;;;;;10275304;28;20231;-77
2021/01/26 04:43:38;;;;;;;7.90;7.20;;;2.80;99.90;;;;;;10290303;28;20311;-78
2021/01/26 04:48:47;;;;;;;8.20;7.50;;;2.70;99.90;;;;;;10290657;28;20188;-77
2021/01/26 04:54:06;;;;;;;9.80;7.03;;;2.80;99.90;;;;;;10291324;28;20230;-77
2021/01/26 04:59:49;;;;;;;6.60;5.90;;;2.80;99.90;;;;;;10286624;28;20652;-78
2021/01/26 05:04:57;;;;;;;7.87;7.07;;;2.90;99.90;;;;;;10220458;28;20279;-77
2021/01/26 05:10:06;;;;;;;7.00;6.30;;;3.00;99.90;;;;;;10288915;28;20262;-77
2021/01/26 05:15:13;;;;;;;7.83;6.10;;;3.00;99.90;;;;;;10290775;28;20204;-78
2021/01/26 05:20:18;;;;;;;6.67;6.07;;;3.10;99.90;;;;;;10338817;23;20707;-82
2021/01/26 05:25:21;;;;;;;6.10;5.50;;;3.20;99.90;;;;;;10365984;28;20211;-83
2021/01/26 05:30:28;;;;;;;6.30;5.70;;;3.20;99.90;;;;;;10372633;28;20209;-82
2021/01/26 05:35:30;;;;;;;5.93;5.43;;;3.20;99.90;;;;;;10358174;28;20650;-83
2021/01/26 05:40:36;;;;;;;7.17;5.73;;;3.20;99.90;;;;;;10354216;28;20669;-83
2021/01/26 05:45:42;;;;;;;6.03;5.40;;;3.20;99.90;;;;;;10392913;28;20187;-82
2021/01/26 05:50:46;;;;;;;7.30;6.10;;;3.20;99.90;;;;;;10358214;28;20583;-83
2021/01/26 05:55:57;;;;;;;6.20;5.70;;;3.20;99.90;;;;;;10314386;28;20278;-81
2021/01/26 06:01:02;;;;;;;5.90;5.33;;;3.30;99.90;;;;;;10375735;28;20237;-83
2021/01/26 06:06:06;;;;;;;4.97;4.57;;;3.30;99.90;;;;;;10342222;28;20210;-83
2021/01/26 06:11:16;;;;;;;6.63;6.03;;;3.30;99.90;;;;;;10348646;28;20222;-83
2021/01/26 06:16:23;;;;;;;13.50;4.80;;;3.30;99.90;;;;;;10334059;28;20762;-84
2021/01/26 06:21:25;;;;;;;4.77;4.37;;;3.30;99.90;;;;;;10338343;28;20250;-84
2021/01/26 06:26:35;;;;;;;3.60;3.30;;;3.30;99.90;;;;;;10330600;28;20195;-83
2021/01/26 06:32:00;;;;;;;4.67;4.27;;;3.40;99.60;;;;;;10309508;28;20631;-83
2021/01/26 06:37:25;;;;;;;4.53;4.13;;;3.40;99.90;;;;;;10364676;28;20391;-83
2021/01/26 06:42:40;;;;;;;3.87;3.47;;;3.50;99.90;;;;;;10346913;28;20762;-83
2021/01/26 06:48:14;;;;;;;4.30;4.00;;;3.50;99.90;;;;;;10356768;28;20218;-83
2021/01/26 06:53:26;;;;;;;4.00;3.63;;;3.50;99.90;;;;;;10342758;28;20230;-82
2021/01/26 06:58:51;;;;;;;5.40;4.10;;;3.50;99.90;;;;;;10358212;28;20643;-84
2021/01/26 07:04:26;;;;;;;4.10;3.70;;;3.50;99.90;;;;;;10375009;28;20225;-83
2021/01/26 07:09:46;;;;;;;3.90;3.60;;;3.60;99.90;;;;;;10347404;28;20262;-84
2021/01/26 07:15:13;;;;;;;4.90;4.37;;;3.60;99.90;;;;;;10350681;28;20242;-83
2021/01/26 07:20:25;;;;;;;5.70;4.03;;;3.60;99.90;;;;;;10349709;28;20624;-83
2021/01/26 07:25:37;;;;;;;4.30;3.90;;;3.70;99.90;;;;;;10357552;28;20247;-82
2021/01/26 07:30:43;;;;;;;3.73;3.40;;;3.70;99.90;;;;;;10371758;28;20282;-83
2021/01/26 07:35:51;;;;;;;3.40;3.10;;;3.70;99.90;;;;;;10344774;28;20225;-83
2021/01/26 07:40:56;;;;;;;4.53;4.10;;;3.80;99.90;;;;;;10357140;28;20286;-85
2021/01/26 07:46:03;;;;;;;4.17;3.57;;;3.70;99.90;;;;;;10343135;28;20199;-84
2021/01/26 07:51:11;;;;;;;5.43;3.80;;;3.70;99.90;;;;;;10342911;28;20235;-84
2021/01/26 07:56:18;;;;;;;4.20;3.80;;;3.70;99.90;;;;;;10345225;28;20209;-84
2021/01/26 08:01:25;;;;;;;4.70;3.80;;;3.80;99.90;;;;;;10377436;28;20254;-84
2021/01/26 08:06:54;;;;;;;4.87;3.03;;;3.90;99.90;;;;;;10360328;28;20665;-83
2021/01/26 08:11:59;;;;;;;5.50;2.80;;;4.00;99.90;;;;;;10347853;28;20362;-84
2021/01/26 08:17:05;;;;;;;3.87;3.33;;;4.00;99.90;;;;;;10361225;28;20286;-83
2021/01/26 08:22:32;;;;;;;3.80;3.27;;;4.00;99.90;;;;;;10355418;28;20227;-83
2021/01/26 08:27:58;;;;;;;3.23;3.03;;;4.10;99.90;;;;;;10337145;28;20707;-83
2021/01/26 08:33:09;;;;;;;3.53;3.23;;;4.10;99.90;;;;;;10324048;28;20215;-83
2021/01/26 08:38:58;;;;;;;8.03;3.83;;;4.10;99.90;;;;;;10361708;28;20219;-84
2021/01/26 08:44:02;;;;;;;5.00;4.40;;;4.10;99.90;;;;;;10292378;28;20765;-83
2021/01/26 08:49:17;;;;;;;5.40;4.90;;;4.10;99.90;;;;;;10340004;28;20198;-82
2021/01/26 08:54:42;;;;;;;6.60;4.80;;;4.00;99.90;;;;;;10341375;28;20215;-82
2021/01/26 08:59:45;;;;;;;5.73;5.10;;;3.90;99.90;;;;;;10322871;28;20223;-83
2021/01/26 09:04:48;;;;;;;6.00;5.40;;;3.90;99.90;;;;;;10353807;28;20246;-82
2021/01/26 09:09:54;;;;;;;7.80;7.05;;;4.00;99.90;;;;;;10319180;28;20437;-82
2021/01/26 09:15:03;;;;;;;5.60;5.10;;;4.00;99.90;;;;;;10344016;28;20233;-82
2021/01/26 09:20:13;;;;;;;4.93;4.43;;;4.00;99.90;;;;;;10347059;28;20233;-83
2021/01/26 09:25:23;;;;;;;5.07;4.57;;;4.00;99.90;;;;;;10345307;28;20190;-82
2021/01/26 09:30:26;;;;;;;5.80;4.40;;;4.10;99.90;;;;;;10336921;28;20570;-82
2021/01/26 09:35:31;;;;;;;4.37;4.00;;;4.10;99.60;;;;;;10366692;28;20674;-84
2021/01/26 09:40:34;;;;;;;5.07;3.93;;;4.10;99.80;;;;;;10330088;28;20702;-83
2021/01/26 09:45:37;;;;;;;3.60;3.30;;;4.20;99.30;;;;;;10331983;28;20203;-83
2021/01/26 09:50:39;;;;;;;4.30;3.97;;;4.40;98.90;;;;;;10337721;28;20745;-83
2021/01/26 09:55:41;;;;;;;8.10;3.50;;;4.50;98.10;;;;;;10338003;28;20516;-82
2021/01/26 10:00:44;;;;;;;3.60;3.30;;;4.50;98.80;;;;;;10342847;28;20226;-82
2021/01/26 10:05:46;;;;;;;4.30;3.43;;;4.50;98.50;;;;;;10360440;28;20199;-83
2021/01/26 10:10:48;;;;;;;3.70;3.40;;;4.60;97.60;;;;;;10366896;28;20273;-83
2021/01/26 10:15:51;;;;;;;3.83;3.17;;;4.50;98.30;;;;;;10368547;28;20192;-82
2021/01/26 10:20:58;;;;;;;2.83;2.63;;;4.70;97.90;;;;;;10362711;28;20230;-83
2021/01/26 10:26:14;;;;;;;2.73;2.53;;;4.80;97.60;;;;;;10365309;28;20326;-83
2021/01/26 10:31:20;;;;;;;3.13;2.83;;;4.90;97.70;;;;;;10370672;28;20253;-82
2021/01/26 10:36:26;;;;;;;3.23;2.93;;;5.10;96.40;;;;;;10349619;28;20199;-84
2021/01/26 10:41:32;;;;;;;3.00;2.70;;;5.20;96.30;;;;;;10378314;28;20215;-82
2021/01/26 10:46:36;;;;;;;2.50;2.30;;;5.30;95.80;;;;;;10349736;28;20202;-84
2021/01/26 10:51:40;;;;;;;5.10;2.93;;;5.20;95.60;;;;;;10359617;28;20211;-82
2021/01/26 10:56:43;;;;;;;2.50;2.33;;;5.10;94.60;;;;;;10359091;28;20199;-83
2021/01/26 11:01:46;;;;;;;2.93;2.60;;;5.00;95.20;;;;;;10356031;28;20313;-81
2021/01/26 11:06:48;;;;;;;2.50;2.40;;;5.00;95.50;;;;;;10382148;28;20710;-82
2021/01/26 11:11:49;;;;;;;3.83;3.00;;;5.00;95.50;;;;;;10339215;28;20214;-82
2021/01/26 11:16:52;;;;;;;3.30;3.00;;;5.00;95.70;;;;;;10348672;28;20198;-84
2021/01/26 11:21:54;;;;;;;5.07;2.60;;;5.00;95.70;;;;;;10356689;28;20218;-84
2021/01/26 11:26:56;;;;;;;3.17;2.93;;;5.00;95.50;;;;;;10354183;28;20199;-83
2021/01/26 11:31:58;;;;;;;4.57;3.20;;;4.90;95.30;;;;;;10317939;28;20226;-82
2021/01/26 11:37:00;;;;;;;3.00;2.70;;;4.90;94.90;;;;;;10342594;28;20597;-82
2021/01/26 11:42:02;;;;;;;3.33;3.00;;;5.00;95.20;;;;;;10344877;28;20484;-82
2021/01/26 11:47:06;;;;;;;3.60;3.13;;;5.10;94.50;;;;;;10348379;28;20195;-83
2021/01/26 11:52:08;;;;;;;3.10;2.80;;;5.30;95.30;;;;;;10361820;28;20206;-84
2021/01/26 11:57:11;;;;;;;2.30;2.10;;;5.30;93.30;;;;;;10341459;28;20207;-81
2021/01/26 12:02:14;;;;;;;4.23;3.03;;;5.30;93.10;;;;;;10354380;28;20229;-82
2021/01/26 12:07:16;;;;;;;2.73;2.50;;;5.30;93.00;;;;;;10323107;28;20206;-82
2021/01/26 12:12:17;;;;;;;2.90;2.60;;;5.30;92.60;;;;;;10346226;28;20641;-82
2021/01/26 12:17:20;;;;;;;3.27;2.73;;;5.20;93.00;;;;;;10346695;28;20259;-82
2021/01/26 12:22:22;;;;;;;3.70;3.10;;;5.00;93.70;;;;;;10348836;28;20242;-83
2021/01/26 12:27:26;;;;;;;3.43;2.87;;;5.10;93.20;;;;;;10354476;28;20590;-82
2021/01/26 12:32:29;;;;;;;3.57;2.97;;;5.20;94.10;;;;;;10342278;28;20711;-81
2021/01/26 12:37:31;;;;;;;3.13;2.93;;;5.40;92.70;;;;;;10339349;28;20203;-81
2021/01/26 12:42:33;;;;;;;3.17;2.87;;;5.30;92.80;;;;;;10350136;28;20553;-82
2021/01/26 12:47:35;;;;;;;3.40;2.77;;;5.30;91.80;;;;;;10328974;28;20211;-83
2021/01/26 12:52:37;;;;;;;4.27;3.87;;;5.30;93.40;;;;;;10329505;28;20607;-82
2021/01/26 12:57:39;;;;;;;3.10;2.80;;;5.30;92.20;;;;;;10327349;28;20204;-82
2021/01/26 13:02:42;;;;;;;4.07;2.70;;;5.30;92.50;;;;;;10312609;28;20264;-81
2021/01/26 13:07:45;;;;;;;5.27;3.97;;;5.30;92.90;;;;;;10331294;28;20210;-82
2021/01/26 13:12:47;;;;;;;3.43;3.13;;;5.20;92.30;;;;;;10314600;28;20223;-82
2021/01/26 13:17:53;;;;;;;2.63;2.43;;;5.20;93.00;;;;;;10332575;28;20297;-83
2021/01/26 13:22:55;;;;;;;3.10;2.80;;;5.30;92.20;;;;;;10353048;28;20235;-83
2021/01/26 13:27:58;;;;;;;4.00;2.83;;;5.50;92.80;;;;;;10348763;28;20314;-82
2021/01/26 13:33:01;;;;;;;2.90;2.53;;;5.60;92.60;;;;;;10344527;28;20215;-83
2021/01/26 13:38:04;;;;;;;4.23;2.70;;;5.70;92.20;;;;;;10321990;28;20227;-84
2021/01/26 13:43:06;;;;;;;3.40;2.40;;;5.80;92.10;;;;;;10314435;28;20669;-82
2021/01/26 13:48:09;;;;;;;3.00;2.73;;;5.80;91.90;;;;;;10321971;28;20702;-83
2021/01/26 13:53:11;;;;;;;2.67;2.47;;;5.80;90.30;;;;;;10321119;28;20227;-83
2021/01/26 13:58:13;;;;;;;4.00;2.80;;;5.70;91.90;;;;;;10326268;28;20227;-82
2021/01/26 14:03:16;;;;;;;5.17;2.30;;;5.60;91.30;;;;;;10322450;28;20674;-83
2021/01/26 14:08:19;;;;;;;7.43;2.80;;;5.70;90.00;;;;;;10317425;28;20207;-81
2021/01/26 14:13:21;;;;;;;3.00;2.60;;;5.70;90.80;;;;;;10335515;28;20227;-86
2021/01/26 14:18:24;;;;;;;2.30;2.17;;;5.80;91.30;;;;;;10327863;28;20218;-83
2021/01/26 14:23:25;;;;;;;2.00;1.90;;;5.80;89.30;;;;;;10333954;28;20794;-84
2021/01/26 14:28:27;;;;;;;2.43;2.23;;;5.90;90.30;;;;;;10340290;28;20289;-82
2021/01/26 14:33:32;;;;;;;2.33;1.90;;;5.90;88.50;;;;;;10340389;28;20306;-82
2021/01/26 14:38:34;;;;;;;2.23;2.07;;;5.80;88.90;;;;;;10319640;28;20583;-82
2021/01/26 14:43:36;;;;;;;1.93;1.83;;;5.80;86.70;;;;;;10327041;28;20310;-82
2021/01/26 14:48:38;;;;;;;2.60;1.73;;;5.80;87.90;;;;;;10330451;28;20278;-83
2021/01/26 14:53:40;;;;;;;3.17;2.23;;;5.80;89.30;;;;;;10367310;28;20222;-83
2021/01/26 14:58:42;;;;;;;2.33;1.50;;;5.80;88.40;;;;;;10360022;28;20241;-81
2021/01/26 15:03:44;;;;;;;2.87;2.00;;;5.70;90.00;;;;;;10343271;28;20639;-84
2021/01/26 15:08:46;;;;;;;1.80;1.70;;;5.70;87.60;;;;;;10342326;28;20687;-83
2021/01/26 15:13:48;;;;;;;1.73;1.60;;;5.70;86.60;;;;;;10358031;28;20226;-84
2021/01/26 15:18:51;;;;;;;2.10;1.70;;;5.70;86.80;;;;;;10325440;28;20219;-84
2021/01/26 15:23:53;;;;;;;2.13;1.80;;;5.60;87.20;;;;;;10341884;28;20540;-84
2021/01/26 15:28:55;;;;;;;2.27;2.07;;;5.60;89.40;;;;;;10342416;28;20286;-84
2021/01/26 15:34:00;;;;;;;2.97;1.97;;;5.60;86.90;;;;;;10326524;28;20229;-83
2021/01/26 15:39:05;;;;;;;2.47;1.70;;;5.60;87.60;;;;;;10323245;28;20215;-83
2021/01/26 15:44:06;;;;;;;2.30;2.10;;;5.60;87.50;;;;;;10363038;28;20227;-85
2021/01/26 15:49:13;;;;;;;2.10;2.00;;;5.50;86.80;;;;;;10341936;28;20199;-85
2021/01/26 15:54:14;;;;;;;1.97;1.80;;;5.50;86.80;;;;;;10342662;28;20216;-83
2021/01/26 15:59:19;;;;;;;3.10;2.10;;;5.40;88.30;;;;;;10343564;28;20241;-84
2021/01/26 16:04:24;;;;;;;1.87;1.77;;;5.40;88.50;;;;;;10371132;28;20675;-84
2021/01/26 16:09:26;;;;;;;2.33;2.13;;;5.40;87.40;;;;;;10375167;28;20493;-85
2021/01/26 16:14:28;;;;;;;2.40;2.20;;;5.30;88.10;;;;;;10353896;28;20226;-84
2021/01/26 16:19:30;;;;;;;3.43;2.20;;;5.30;87.70;;;;;;10351932;28;20229;-84
2021/01/26 16:24:32;;;;;;;2.30;2.10;;;5.20;88.20;;;;;;10360962;28;20977;-84
2021/01/26 16:29:35;;;;;;;1.80;1.70;;;5.20;87.90;;;;;;10361890;28;20180;-84
2021/01/26 16:34:37;;;;;;;2.73;2.23;;;5.20;89.90;;;;;;10357871;28;20569;-84
2021/01/26 16:39:42;;;;;;;1.70;1.60;;;5.20;90.10;;;;;;10373674;28;20663;-84
2021/01/26 16:44:44;;;;;;;1.93;1.83;;;5.10;89.90;;;;;;10355907;28;20214;-83
2021/01/26 16:49:50;;;;;;;1.80;1.70;;;5.10;90.30;;;;;;10367219;28;20195;-82
2021/01/26 16:54:52;;;;;;;2.83;2.63;;;5.10;90.60;;;;;;10323288;28;20227;-83
2021/01/26 16:59:56;;;;;;;4.30;2.60;;;5.10;90.70;;;;;;10369094;28;20276;-84
2021/01/26 17:04:59;;;;;;;4.73;2.80;;;5.10;90.90;;;;;;10359577;28;20219;-82
2021/01/26 17:10:01;;;;;;;2.90;2.60;;;5.10;90.60;;;;;;10341459;28;20218;-83
2021/01/26 17:15:06;;;;;;;4.67;2.77;;;5.10;90.30;;;;;;10356724;28;20238;-82
2021/01/26 17:20:16;;;;;;;2.37;2.20;;;5.10;90.50;;;;;;10357593;28;20816;-82
2021/01/26 17:25:18;;;;;;;3.07;2.13;;;5.10;91.20;;;;;;10356410;28;20633;-84
2021/01/26 17:30:20;;;;;;;2.63;2.43;;;5.10;91.20;;;;;;10335431;28;20200;-81
2021/01/26 17:35:23;;;;;;;2.80;2.57;;;5.10;91.30;;;;;;10362107;28;20209;-81
2021/01/26 17:40:25;;;;;;;20.60;10.20;;;5.10;91.30;;;;;;10356687;28;20210;-81
2021/01/26 17:45:27;;;;;;;13.87;7.23;;;5.10;91.60;;;;;;10351484;28;20191;-82
2021/01/26 17:50:30;;;;;;;6.90;4.40;;;5.10;91.40;;;;;;10351230;28;20549;-81
2021/01/26 17:55:35;;;;;;;3.93;3.00;;;5.10;91.30;;;;;;10351286;28;20198;-81
2021/01/26 18:00:37;;;;;;;5.70;3.60;;;5.10;91.60;;;;;;10335589;28;20214;-82
2021/01/26 18:05:39;;;;;;;2.63;2.43;;;5.10;91.20;;;;;;10349600;28;20195;-83
2021/01/26 18:10:41;;;;;;;2.87;2.60;;;5.10;91.20;;;;;;10364753;28;20202;-84
2021/01/26 18:15:43;;;;;;;3.60;3.10;;;5.10;91.70;;;;;;10337296;28;20712;-84
2021/01/26 18:20:47;;;;;;;5.03;3.10;;;5.10;91.80;;;;;;10342647;28;20254;-83
2021/01/26 18:25:49;;;;;;;3.50;2.90;;;5.10;91.60;;;;;;10333276;28;20263;-83
2021/01/26 18:30:51;;;;;;;3.63;3.30;;;5.10;91.90;;;;;;10340003;28;20221;-83
2021/01/26 18:35:54;;;;;;;4.80;4.30;;;5.20;91.50;;;;;;10354779;28;20218;-83
2021/01/26 18:40:56;;;;;;;3.43;3.13;;;5.20;92.00;;;;;;10346492;28;20767;-84
2021/01/26 18:45:59;;;;;;;8.10;5.67;;;5.20;92.40;;;;;;10344180;28;20207;-83
2021/01/26 18:51:03;;;;;;;4.23;3.63;;;5.30;92.20;;;;;;10342117;28;20223;-84
2021/01/26 18:56:05;;;;;;;3.77;3.47;;;5.20;92.50;;;;;;10340153;28;20195;-81
2021/01/26 19:01:08;;;;;;;3.60;3.30;;;5.10;92.50;;;;;;10325758;28;20258;-82
2021/01/26 19:06:12;;;;;;;4.60;4.20;;;5.10;92.60;;;;;;10340089;28;20203;-83
2021/01/26 19:11:15;;;;;;;3.80;3.43;;;5.10;92.30;;;;;;10313312;28;20546;-83
2021/01/26 19:16:17;;;;;;;3.47;3.20;;;5.10;92.40;;;;;;10347961;28;21290;-80
2021/01/26 19:21:23;;;;;;;3.90;3.20;;;5.20;92.40;;;;;;10328152;28;20227;-83
2021/01/26 19:26:24;;;;;;;5.80;3.50;;;5.20;92.20;;;;;;10312210;28;20209;-83
2021/01/26 19:31:27;;;;;;;4.27;3.20;;;5.10;92.20;;;;;;10339974;28;20250;-80
2021/01/26 19:36:30;;;;;;;3.87;3.43;;;5.10;91.70;;;;;;10344374;28;20227;-82
2021/01/26 19:41:31;;;;;;;3.67;3.37;;;5.10;92.10;;;;;;10323542;28;20288;-82
2021/01/26 19:46:33;;;;;;;3.63;3.23;;;5.10;92.60;;;;;;10320951;28;20640;-82
2021/01/26 19:51:36;;;;;;;5.67;3.60;;;5.20;92.90;;;;;;10306661;28;20649;-81
2021/01/26 19:56:40;;;;;;;3.77;3.47;;;5.10;92.10;;;;;;10311425;28;20298;-83
2021/01/26 20:01:42;;;;;;;3.03;2.80;;;5.10;92.00;;;;;;10308554;28;20227;-84
2021/01/26 20:06:45;;;;;;;5.07;4.27;;;5.00;92.50;;;;;;10307401;28;20203;-82
2021/01/26 20:11:47;;;;;;;8.10;3.70;;;4.90;92.30;;;;;;10324344;28;20215;-82
2021/01/26 20:16:48;;;;;;;3.93;3.63;;;4.90;92.30;;;;;;10328458;28;20203;-82
2021/01/26 20:21:52;;;;;;;4.77;4.37;;;4.80;92.00;;;;;;10324973;28;20222;-83
2021/01/26 20:26:53;;;;;;;4.30;4.00;;;4.70;92.20;;;;;;10345412;28;20238;-82
2021/01/26 20:31:58;;;;;;;4.90;4.43;;;4.60;92.70;;;;;;10305045;28;20223;-84
2021/01/26 20:37:03;;;;;;;5.30;4.80;;;4.60;92.90;;;;;;10313334;28;20687;-83
2021/01/26 20:42:06;;;;;;;4.73;4.17;;;4.50;93.10;;;;;;10339279;28;20235;-83
2021/01/26 20:47:12;;;;;;;4.23;3.93;;;4.50;93.00;;;;;;10321030;28;20686;-81
2021/01/26 20:52:15;;;;;;;4.43;4.03;;;4.40;92.90;;;;;;10353096;28;20269;-83
2021/01/26 20:57:17;;;;;;;5.10;4.60;;;4.40;93.20;;;;;;10358795;28;20285;-83
2021/01/26 21:02:19;;;;;;;4.80;4.40;;;4.30;92.80;;;;;;10334809;28;20358;-83
2021/01/26 21:07:21;;;;;;;5.83;5.23;;;4.30;92.70;;;;;;10327841;28;20195;-83
2021/01/26 21:12:23;;;;;;;5.30;4.80;;;4.20;93.00;;;;;;10317082;28;20257;-83
2021/01/26 21:17:25;;;;;;;4.30;3.90;;;4.10;92.50;;;;;;10307900;28;20298;-82
2021/01/26 21:22:27;;;;;;;4.17;3.87;;;4.10;92.90;;;;;;10327807;28;20226;-81
2021/01/26 21:27:29;;;;;;;4.67;4.00;;;4.10;93.20;;;;;;10312628;28;20227;-81
2021/01/26 21:32:31;;;;;;;7.20;4.43;;;4.00;93.10;;;;;;10330278;28;20219;-84
2021/01/26 21:37:33;;;;;;;4.67;4.27;;;4.00;92.80;;;;;;10307210;28;20211;-83
2021/01/26 21:42:35;;;;;;;4.23;3.93;;;3.90;93.50;;;;;;10321906;28;20226;-83
2021/01/26 21:47:37;;;;;;;4.60;4.20;;;3.90;93.80;;;;;;10315615;28;20261;-84
2021/01/26 21:52:41;;;;;;;5.10;4.10;;;3.90;93.60;;;;;;10323857;28;20215;-82
2021/01/26 21:57:43;;;;;;;5.73;4.50;;;3.90;93.90;;;;;;10306431;28;20230;-83
2021/01/26 22:02:45;;;;;;;3.80;3.50;;;3.90;94.30;;;;;;10329368;28;20317;-81
2021/01/26 22:07:47;;;;;;;4.37;4.07;;;3.90;94.00;;;;;;10384440;28;20273;-81
2021/01/26 22:12:49;;;;;;;5.00;4.50;;;4.00;94.00;;;;;;10366840;28;20758;-83
2021/01/26 22:17:53;;;;;;;4.10;3.80;;;4.00;93.90;;;;;;10340237;28;20358;-82
2021/01/26 22:22:57;;;;;;;5.10;4.00;;;4.00;93.70;;;;;;10313206;28;20241;-80
2021/01/26 22:27:58;;;;;;;4.97;4.27;;;4.10;94.00;;;;;;10334252;28;20199;-81
2021/01/26 22:33:00;;;;;;;4.00;3.70;;;4.10;94.40;;;;;;10326630;28;20286;-83
2021/01/26 22:38:03;;;;;;;4.07;3.77;;;4.20;94.50;;;;;;10328134;28;20294;-83
2021/01/26 22:43:05;;;;;;;4.40;4.00;;;4.30;94.40;;;;;;10318836;28;20239;-82
2021/01/26 22:48:08;;;;;;;4.80;4.40;;;4.30;94.20;;;;;;10322252;28;20210;-81
2021/01/26 22:53:11;;;;;;;4.33;3.93;;;4.20;93.80;;;;;;10339926;28;20226;-83
2021/01/26 22:58:12;;;;;;;4.13;3.70;;;4.10;94.00;;;;;;10305467;28;20234;-83
2021/01/26 23:03:18;;;;;;;6.00;4.13;;;4.00;93.90;;;;;;10326996;28;20322;-82
2021/01/26 23:08:24;;;;;;;4.67;4.27;;;4.00;93.80;;;;;;10349331;28;20203;-82
2021/01/26 23:13:28;;;;;;;4.40;4.00;;;3.90;93.70;;;;;;10332862;28;20226;-83
2021/01/26 23:18:31;;;;;;;4.13;3.83;;;3.80;93.60;;;;;;10330773;28;20279;-81
2021/01/26 23:23:34;;;;;;;3.87;3.57;;;3.70;93.60;;;;;;10328132;28;20318;-81
2021/01/26 23:28:36;;;;;;;3.80;3.50;;;3.50;93.40;;;;;;10314925;28;20196;-82
2021/01/26 23:33:38;;;;;;;4.60;3.30;;;3.40;93.40;;;;;;10310897;28;20242;-81
2021/01/26 23:38:41;;;;;;;3.20;2.93;;;3.30;93.50;;;;;;10325582;28;20206;-81
2021/01/26 23:43:43;;;;;;;2.97;2.77;;;3.30;93.70;;;;;;10324981;28;20223;-80
2021/01/26 23:48:45;;;;;;;3.20;2.90;;;3.30;93.50;;;;;;10308716;28;20199;-82
2021/01/26 23:53:47;;;;;;;4.07;3.70;;;3.30;93.50;;;;;;10325474;28;20314;-83
2021/01/26 23:58:49;;;;;;;4.90;3.03;;;3.40;93.40;;;;;;10328110;28;20199;-83
